createdAt,value
2022-09-28T00:01:41.976Z,18.87
2022-09-28T00:04:10.179Z,19.86
2022-09-28T00:06:38.784Z,18.79
2022-09-28T00:09:06.832Z,17.58
2022-09-28T00:11:35.554Z,16.74
2022-09-28T00:14:03.898Z,16.64
2022-09-28T00:16:34.846Z,18.53
2022-09-28T00:19:05.447Z,19.65
2022-09-28T00:21:35.998Z,18.70
2022-09-28T00:24:15.996Z,17.49
2022-09-28T00:26:44.120Z,16.60
2022-09-28T00:29:27.760Z,16.66
2022-09-28T00:32:15.796Z,18.91
2022-09-28T00:34:49.090Z,19.80
2022-09-28T00:37:19.311Z,18.59
2022-09-28T00:39:49.279Z,17.46
2022-09-28T00:42:22.930Z,16.71
2022-09-28T00:44:56.312Z,17.08
2022-09-28T00:47:49.996Z,19.35
2022-09-28T00:50:29.346Z,19.61
2022-09-28T00:53:11.739Z,18.21
2022-09-28T00:55:57.327Z,17.10
2022-09-28T00:58:30.103Z,16.35
2022-09-28T01:00:59.939Z,17.38
2022-09-28T01:03:29.232Z,19.50
2022-09-28T01:06:02.487Z,19.31
2022-09-28T01:08:33.142Z,17.95
2022-09-28T01:11:01.968Z,16.92
2022-09-28T01:13:32.868Z,16.20
2022-09-28T01:16:09.979Z,16.91
2022-09-28T01:18:48.875Z,19.31
2022-09-28T01:21:20.532Z,19.36
2022-09-28T01:24:03.759Z,18.03
2022-09-28T01:26:40.195Z,16.87
2022-09-28T01:29:34.091Z,16.14
2022-09-28T01:32:27.875Z,17.57
2022-09-28T01:35:23.385Z,19.44
2022-09-28T01:37:57.606Z,18.43
2022-09-28T01:40:29.743Z,17.27
2022-09-28T01:43:24.263Z,16.48
2022-09-28T01:46:06.741Z,16.54
2022-09-28T01:48:54.781Z,18.75
2022-09-28T01:51:32.510Z,19.36
2022-09-28T01:54:07.349Z,18.06
2022-09-28T01:56:46.112Z,16.93
2022-09-28T01:59:20.283Z,16.18
2022-09-28T02:01:54.927Z,17.36
2022-09-28T02:04:26.047Z,19.51
2022-09-28T02:07:01.390Z,19.15
2022-09-28T02:09:49.632Z,17.79
2022-09-28T02:12:27.225Z,16.74
2022-09-28T02:15:06.766Z,16.05
2022-09-28T02:17:35.451Z,16.36
2022-09-28T02:20:04.638Z,18.71
2022-09-28T02:22:44.419Z,19.49
2022-09-28T02:25:39.806Z,18.18
2022-09-28T02:28:11.974Z,16.88
2022-09-28T02:30:43.425Z,16.14
2022-09-28T02:33:41.294Z,16.35
2022-09-28T02:36:10.082Z,18.92
2022-09-28T02:38:39.591Z,19.12
2022-09-28T02:41:28.242Z,17.87
2022-09-28T02:43:59.282Z,16.69
2022-09-28T02:46:46.301Z,15.95
2022-09-28T02:49:26.032Z,16.50
2022-09-28T02:52:13.984Z,18.77
2022-09-28T02:54:52.211Z,18.95
2022-09-28T02:57:46.889Z,17.48
2022-09-28T03:00:19.908Z,16.22
2022-09-28T03:03:04.226Z,15.60
2022-09-28T03:05:40.078Z,17.25
2022-09-28T03:08:17.263Z,18.54
2022-09-28T03:11:23.427Z,17.58
2022-09-28T03:13:53.241Z,16.25
2022-09-28T03:16:23.413Z,16.04
2022-09-28T03:18:51.840Z,18.06
2022-09-28T03:21:20.013Z,19.14
2022-09-28T03:23:48.390Z,18.08
2022-09-28T03:26:18.306Z,16.87
2022-09-28T03:28:46.787Z,15.98
2022-09-28T03:31:19.563Z,15.90
2022-09-28T03:33:47.948Z,18.02
2022-09-28T03:36:16.120Z,19.03
2022-09-28T03:38:44.398Z,17.90
2022-09-28T03:41:12.573Z,16.73
2022-09-28T03:43:42.591Z,15.90
2022-09-28T03:46:11.389Z,15.99
2022-09-28T03:48:43.544Z,18.27
2022-09-28T03:51:12.946Z,19.05
2022-09-28T03:53:41.222Z,17.89
2022-09-28T03:56:13.479Z,16.80
2022-09-28T03:58:42.718Z,15.99
2022-09-28T04:01:16.895Z,15.93
2022-09-28T04:03:47.244Z,18.01
2022-09-28T04:06:15.609Z,19.08
2022-09-28T04:08:43.782Z,18.02
2022-09-28T04:11:12.683Z,16.80
2022-09-28T04:13:41.669Z,15.93
2022-09-28T04:16:12.581Z,15.31
2022-09-28T04:18:44.750Z,16.34
2022-09-28T04:21:28.409Z,18.63
2022-09-28T04:24:02.826Z,18.21
2022-09-28T04:26:31.311Z,16.92
2022-09-28T04:29:17.433Z,15.92
2022-09-28T04:32:00.298Z,15.06
2022-09-28T04:34:37.899Z,15.99
2022-09-28T04:37:08.039Z,18.24
2022-09-28T04:39:36.125Z,18.36
2022-09-28T04:42:04.485Z,17.02
2022-09-28T04:44:33.068Z,15.92
2022-09-28T04:47:06.466Z,15.14
2022-09-28T04:49:53.481Z,15.46
2022-09-28T04:52:27.700Z,17.92
2022-09-28T04:54:55.872Z,18.63
2022-09-28T04:57:25.581Z,17.39
2022-09-28T04:59:53.649Z,16.27
2022-09-28T05:02:21.859Z,15.48
2022-09-28T05:05:13.039Z,15.80
2022-09-28T05:08:07.221Z,18.37
2022-09-28T05:10:36.011Z,18.59
2022-09-28T05:13:04.388Z,17.33
2022-09-28T05:15:34.201Z,16.26
2022-09-28T05:18:03.398Z,15.48
2022-09-28T05:20:43.123Z,15.62
2022-09-28T05:23:12.648Z,17.79
2022-09-28T05:25:43.281Z,18.54
2022-09-28T05:28:28.153Z,17.23
2022-09-28T05:31:15.388Z,16.00
2022-09-28T05:33:59.103Z,15.12
2022-09-28T05:36:28.198Z,14.82
2022-09-28T05:38:57.143Z,16.58
2022-09-28T05:41:25.468Z,17.97
2022-09-28T05:43:55.151Z,17.09
2022-09-28T05:46:23.972Z,15.87
2022-09-28T05:48:52.844Z,14.92
2022-09-28T05:51:22.259Z,14.95
2022-09-28T05:53:50.331Z,17.01
2022-09-28T05:56:20.039Z,17.49
2022-09-28T05:58:49.545Z,16.31
2022-09-28T06:01:20.638Z,15.23
2022-09-28T06:03:48.765Z,14.57
2022-09-28T06:06:16.831Z,15.94
2022-09-28T06:08:48.594Z,17.56
2022-09-28T06:11:37.451Z,16.55
2022-09-28T06:14:14.071Z,15.40
2022-09-28T06:16:44.047Z,14.59
2022-09-28T06:19:13.540Z,14.37
2022-09-28T06:22:17.144Z,16.92
2022-09-28T06:24:52.186Z,17.62
2022-09-28T06:27:20.454Z,16.50
2022-09-28T06:29:48.528Z,15.49
2022-09-28T06:32:16.598Z,14.75
2022-09-28T06:34:48.654Z,14.46
2022-09-28T06:37:18.781Z,16.42
2022-09-28T06:39:47.365Z,17.53
2022-09-28T06:42:17.894Z,16.50
2022-09-28T06:45:05.114Z,15.34
2022-09-28T06:48:01.245Z,14.58
2022-09-28T06:50:42.632Z,14.10
2022-09-28T06:53:30.358Z,14.65
2022-09-28T06:56:19.710Z,17.39
2022-09-28T06:58:48.547Z,17.66
2022-09-28T07:01:16.879Z,16.52
2022-09-28T07:04:08.109Z,15.45
2022-09-28T07:06:55.127Z,14.75
2022-09-28T07:09:50.236Z,14.23
2022-09-28T07:12:36.529Z,15.25
2022-09-28T07:15:27.743Z,17.42
2022-09-28T07:18:03.358Z,17.08
2022-09-28T07:20:44.634Z,16.02
2022-09-28T07:23:19.832Z,15.21
2022-09-28T07:26:26.695Z,14.63
2022-09-28T07:29:01.110Z,15.03
2022-09-28T07:31:39.526Z,17.50
2022-09-28T07:34:26.028Z,17.46
2022-09-28T07:37:13.663Z,16.28
2022-09-28T07:40:00.572Z,15.48
2022-09-28T07:42:31.404Z,14.85
2022-09-28T07:45:00.297Z,14.45
2022-09-28T07:47:33.875Z,14.16
2022-09-28T07:50:32.896Z,15.03
2022-09-28T07:53:38.383Z,18.03
2022-09-28T07:56:25.972Z,17.69
2022-09-28T07:59:03.158Z,16.60
2022-09-28T08:01:40.305Z,15.83
2022-09-28T08:04:11.473Z,15.33
2022-09-28T08:06:41.811Z,14.97
2022-09-28T08:09:11.727Z,14.66
2022-09-28T08:11:59.867Z,15.26
2022-09-28T08:14:48.322Z,17.40
2022-09-28T08:17:48.134Z,16.78
2022-09-28T08:20:36.686Z,16.01
2022-09-28T08:23:09.157Z,15.44
2022-09-28T08:25:38.933Z,15.08
2022-09-28T08:28:08.167Z,14.85
2022-09-28T08:30:47.013Z,14.69
2022-09-28T08:33:27.864Z,14.56
2022-09-28T08:36:28.906Z,14.45
2022-09-28T08:39:02.711Z,14.35
2022-09-28T08:42:17.171Z,15.24
2022-09-28T08:45:15.656Z,17.58
2022-09-28T08:48:32.162Z,16.79
2022-09-28T08:51:39.560Z,15.82
2022-09-28T08:54:24.214Z,15.29
2022-09-28T08:57:05.395Z,14.91
2022-09-28T08:59:49.548Z,14.63
2022-09-28T09:02:29.653Z,14.38
2022-09-28T09:05:15.026Z,14.87
2022-09-28T09:08:16.016Z,17.02
2022-09-28T09:10:58.116Z,16.56
2022-09-28T09:13:42.674Z,15.82
2022-09-28T09:16:19.026Z,15.39
2022-09-28T09:19:41.267Z,15.14
2022-09-28T09:22:46.115Z,14.97
2022-09-28T09:25:26.126Z,14.93
2022-09-28T09:28:15.846Z,14.92
2022-09-28T09:31:27.402Z,14.91
2022-09-28T09:34:15.373Z,14.86
2022-09-28T09:37:18.670Z,14.84
2022-09-28T09:40:41.253Z,14.81
2022-09-28T09:43:50.146Z,14.79
2022-09-28T09:46:49.963Z,14.79
2022-09-28T09:49:31.142Z,14.80
2022-09-28T09:52:10.486Z,14.86
2022-09-28T09:54:51.655Z,14.93
2022-09-28T09:57:54.750Z,14.97
2022-09-28T10:00:46.166Z,15.06
2022-09-28T10:03:28.267Z,15.15
2022-09-28T10:06:12.335Z,15.26
2022-09-28T10:08:46.938Z,15.35
2022-09-28T10:11:31.780Z,15.45
2022-09-28T10:14:00.285Z,15.55
2022-09-28T10:16:41.216Z,15.63
2022-09-28T10:19:16.987Z,15.71
2022-09-28T10:22:06.604Z,15.81
2022-09-28T10:24:41.823Z,15.88
2022-09-28T10:27:28.941Z,15.93
2022-09-28T10:30:12.983Z,15.96
2022-09-28T10:32:46.792Z,16.01
2022-09-28T10:35:23.023Z,16.03
2022-09-28T10:38:17.319Z,16.06
2022-09-28T10:40:48.216Z,16.08
2022-09-28T10:43:33.862Z,16.11
2022-09-28T10:46:03.951Z,16.16
2022-09-28T10:48:37.612Z,16.24
2022-09-28T10:51:08.385Z,16.29
2022-09-28T10:53:37.722Z,16.33
2022-09-28T10:56:23.508Z,16.31
2022-09-28T10:59:01.820Z,16.30
2022-09-28T11:01:44.336Z,16.31
2022-09-28T11:04:24.584Z,16.35
2022-09-28T11:06:52.891Z,16.42
2022-09-28T11:09:32.608Z,16.49
2022-09-28T11:12:07.235Z,16.51
2022-09-28T11:14:42.096Z,16.48
2022-09-28T11:17:26.105Z,16.47
2022-09-28T11:20:28.485Z,16.49
2022-09-28T11:23:16.008Z,16.55
2022-09-28T11:25:55.959Z,16.58
2022-09-28T11:28:38.818Z,16.64
2022-09-28T11:31:15.282Z,16.71
2022-09-28T11:34:31.465Z,16.74
2022-09-28T11:37:22.352Z,16.73
2022-09-28T11:40:22.078Z,16.68
2022-09-28T11:43:07.574Z,16.62
2022-09-28T11:46:08.114Z,16.60
2022-09-28T11:48:48.024Z,16.62
2022-09-28T11:51:22.958Z,16.68
2022-09-28T11:53:56.763Z,16.74
2022-09-28T11:56:39.580Z,16.81
2022-09-28T11:59:17.325Z,16.85
2022-09-28T12:01:53.642Z,16.88
2022-09-28T12:04:41.785Z,16.91
2022-09-28T12:07:19.597Z,16.94
2022-09-28T12:09:54.422Z,16.96
2022-09-28T12:12:45.833Z,16.99
2022-09-28T12:15:19.436Z,17.00
2022-09-28T12:17:54.452Z,17.01
2022-09-28T12:20:46.807Z,17.03
2022-09-28T12:23:29.728Z,17.05
2022-09-28T12:26:02.918Z,17.06
2022-09-28T12:28:46.174Z,17.06
2022-09-28T12:31:57.221Z,17.04
2022-09-28T12:34:25.808Z,17.01
2022-09-28T12:37:09.174Z,17.00
2022-09-28T12:40:14.688Z,16.99
2022-09-28T12:42:53.110Z,16.98
2022-09-28T12:46:09.774Z,16.95
2022-09-28T12:48:58.416Z,16.94
2022-09-28T12:51:55.927Z,16.93
2022-09-28T12:54:30.757Z,16.94
2022-09-28T12:57:31.494Z,16.93
2022-09-28T13:00:25.063Z,16.93
2022-09-28T13:03:10.545Z,16.94
2022-09-28T13:06:00.167Z,16.96
2022-09-28T13:08:55.427Z,16.97
2022-09-28T13:11:38.554Z,16.97
2022-09-28T13:14:44.000Z,16.97
2022-09-28T13:17:38.082Z,16.97
2022-09-28T13:20:38.307Z,16.97
2022-09-28T13:23:09.353Z,16.98
2022-09-28T13:25:41.412Z,16.98
2022-09-28T13:28:11.840Z,16.98
2022-09-28T13:30:40.840Z,16.99
2022-09-28T13:33:17.406Z,17.02
2022-09-28T13:35:45.576Z,17.04
2022-09-28T13:38:16.719Z,17.05
2022-09-28T13:41:12.746Z,17.06
2022-09-28T13:43:53.208Z,17.09
2022-09-28T13:46:46.778Z,17.09
2022-09-28T13:49:30.313Z,17.11
2022-09-28T13:52:05.447Z,17.13
2022-09-28T13:54:55.023Z,17.14
2022-09-28T13:57:53.508Z,17.17
2022-09-28T14:00:26.700Z,17.19
2022-09-28T14:03:29.059Z,17.21
2022-09-28T14:06:00.854Z,17.24
2022-09-28T14:08:38.837Z,17.27
2022-09-28T14:11:25.238Z,17.31
2022-09-28T14:14:00.989Z,17.34
2022-09-28T14:16:32.128Z,17.39
2022-09-28T14:19:07.576Z,17.44
2022-09-28T14:21:44.559Z,17.52
2022-09-28T14:24:15.598Z,17.62
2022-09-28T14:27:02.306Z,17.71
2022-09-28T14:29:34.681Z,17.80
2022-09-28T14:32:08.483Z,17.90
2022-09-28T14:34:43.825Z,18.03
2022-09-28T14:37:49.888Z,18.18
2022-09-28T14:40:40.164Z,18.37
2022-09-28T14:43:24.921Z,18.53
2022-09-28T14:46:08.840Z,18.62
2022-09-28T14:49:04.694Z,18.60
2022-09-28T14:51:38.206Z,18.53
2022-09-28T14:54:17.998Z,18.44
2022-09-28T14:57:09.817Z,18.34
2022-09-28T14:59:44.108Z,18.22
2022-09-28T15:02:17.493Z,18.12
2022-09-28T15:04:53.633Z,18.02
2022-09-28T15:07:48.016Z,17.92
2022-09-28T15:10:43.644Z,17.82
2022-09-28T15:13:27.205Z,17.72
2022-09-28T15:15:59.691Z,17.62
2022-09-28T15:19:09.314Z,17.54
2022-09-28T15:21:40.151Z,17.45
2022-09-28T15:25:03.152Z,17.38
2022-09-28T15:27:37.835Z,17.28
2022-09-28T15:30:15.124Z,17.21
2022-09-28T15:32:43.195Z,17.14
2022-09-28T15:35:25.807Z,17.08
2022-09-28T15:37:55.913Z,17.00
2022-09-28T15:40:38.835Z,16.93
2022-09-28T15:43:27.297Z,16.87
2022-09-28T15:46:07.307Z,16.79
2022-09-28T15:48:56.003Z,17.29
2022-09-28T15:51:25.403Z,20.02
2022-09-28T15:54:31.363Z,21.59
2022-09-28T15:57:02.942Z,20.62
2022-09-28T15:59:35.788Z,19.64
2022-09-28T16:02:09.913Z,18.97
2022-09-28T16:04:55.614Z,18.51
2022-09-28T16:07:31.918Z,18.12
2022-09-28T16:10:02.214Z,18.29
2022-09-28T16:12:54.319Z,20.36
2022-09-28T16:15:37.282Z,21.29
2022-09-28T16:18:29.686Z,20.22
2022-09-28T16:21:21.716Z,19.27
2022-09-28T16:23:55.827Z,18.60
2022-09-28T16:26:39.105Z,18.13
2022-09-28T16:29:43.172Z,18.88
2022-09-28T16:32:26.304Z,21.23
2022-09-28T16:35:11.161Z,20.87
2022-09-28T16:37:42.919Z,19.76
2022-09-28T16:40:12.012Z,19.02
2022-09-28T16:42:49.104Z,18.50
2022-09-28T16:45:24.359Z,19.01
2022-09-28T16:47:56.579Z,21.17
2022-09-28T16:50:26.601Z,21.41
2022-09-28T16:53:34.532Z,20.34
2022-09-28T16:56:05.173Z,19.29
2022-09-28T16:58:33.947Z,18.71
2022-09-28T17:01:02.121Z,18.27
2022-09-28T17:03:30.539Z,17.97
2022-09-28T17:05:59.086Z,19.47
2022-09-28T17:08:28.147Z,21.09
2022-09-28T17:11:20.200Z,20.46
2022-09-28T17:13:49.935Z,19.33
2022-09-28T17:16:37.026Z,18.65
2022-09-28T17:19:26.104Z,18.07
2022-09-28T17:21:54.288Z,17.67
2022-09-28T17:24:23.576Z,17.36
2022-09-28T17:26:52.392Z,17.09
2022-09-28T17:29:20.847Z,17.54
2022-09-28T17:31:49.020Z,19.95
2022-09-28T17:34:17.197Z,20.63
2022-09-28T17:36:46.480Z,19.65
2022-09-28T17:39:20.196Z,18.78
2022-09-28T17:41:49.804Z,18.15
2022-09-28T17:44:20.576Z,17.72
2022-09-28T17:46:49.793Z,17.38
2022-09-28T17:49:18.833Z,17.12
2022-09-28T17:51:47.009Z,16.88
2022-09-28T17:54:17.036Z,16.68
2022-09-28T17:56:46.322Z,16.49
2022-09-28T17:59:17.978Z,16.30
2022-09-28T18:01:46.194Z,16.14
2022-09-28T18:04:39.597Z,15.98
2022-09-28T18:07:04.721Z,15.84
2022-09-28T18:09:32.996Z,15.73
2022-09-28T18:12:04.900Z,16.19
2022-09-28T18:14:33.335Z,18.68
2022-09-28T18:17:01.407Z,19.42
2022-09-28T18:19:32.138Z,18.55
2022-09-28T18:22:01.768Z,17.72
2022-09-28T18:24:32.720Z,17.20
2022-09-28T18:27:01.067Z,16.82
2022-09-28T18:29:33.132Z,16.53
2022-09-28T18:32:02.765Z,16.29
2022-09-28T18:34:30.914Z,16.10
2022-09-28T18:36:58.984Z,15.93
2022-09-28T18:39:27.056Z,15.80
2022-09-28T18:41:55.127Z,15.68
2022-09-28T18:44:23.916Z,15.56
2022-09-28T18:46:51.986Z,15.47
2022-09-28T18:49:20.909Z,15.42
2022-09-28T18:51:49.357Z,15.35
2022-09-28T18:54:17.738Z,15.29
2022-09-28T18:56:46.013Z,15.24
2022-09-28T18:59:14.893Z,15.19
2022-09-28T19:01:43.812Z,15.15
2022-09-28T19:04:13.912Z,15.11
2022-09-28T19:06:43.003Z,15.08
2022-09-28T19:09:12.452Z,15.05
2022-09-28T19:11:40.583Z,15.03
2022-09-28T19:14:11.317Z,15.00
2022-09-28T19:16:39.446Z,14.97
2022-09-28T19:19:07.767Z,14.95
2022-09-28T19:21:36.088Z,14.93
2022-09-28T19:24:05.465Z,14.91
2022-09-28T19:26:34.351Z,14.89
2022-09-28T19:29:03.337Z,14.88
2022-09-28T19:31:32.834Z,14.87
2022-09-28T19:34:01.008Z,14.85
2022-09-28T19:36:29.591Z,14.84
2022-09-28T19:39:03.201Z,14.82
2022-09-28T19:41:51.747Z,14.81
2022-09-28T19:44:25.517Z,14.80
2022-09-28T19:47:00.086Z,14.78
2022-09-28T19:49:33.242Z,14.76
2022-09-28T19:52:13.463Z,14.74
2022-09-28T19:54:52.246Z,14.74
2022-09-28T19:57:20.620Z,14.73
2022-09-28T19:59:52.573Z,14.71
2022-09-28T20:02:22.128Z,14.69
2022-09-28T20:04:50.266Z,14.67
2022-09-28T20:07:18.538Z,14.67
2022-09-28T20:09:46.609Z,14.65
2022-09-28T20:12:14.681Z,14.63
2022-09-28T20:14:43.161Z,14.62
2022-09-28T20:17:11.232Z,15.03
2022-09-28T20:19:39.406Z,17.43
2022-09-28T20:22:07.479Z,19.13
2022-09-28T20:24:35.505Z,18.52
2022-09-28T20:27:03.561Z,17.61
2022-09-28T20:29:33.685Z,17.02
2022-09-28T20:32:04.165Z,16.61
2022-09-28T20:34:34.184Z,16.32
2022-09-28T20:37:02.565Z,16.09
2022-09-28T20:39:30.952Z,15.91
2022-09-28T20:41:59.011Z,15.74
2022-09-28T20:44:27.391Z,15.62
2022-09-28T20:46:56.998Z,15.50
2022-09-28T20:49:27.425Z,15.39
2022-09-28T20:51:55.496Z,15.28
2022-09-28T20:54:23.527Z,15.18
2022-09-28T20:56:52.152Z,15.09
2022-09-28T20:59:23.090Z,15.01
2022-09-28T21:01:52.910Z,14.94
2022-09-28T21:04:21.295Z,14.87
2022-09-28T21:06:49.557Z,14.83
2022-09-28T21:09:17.733Z,14.79
2022-09-28T21:11:46.721Z,14.75
2022-09-28T21:14:15.462Z,15.27
2022-09-28T21:16:43.787Z,17.78
2022-09-28T21:19:11.861Z,19.27
2022-09-28T21:21:40.397Z,18.56
2022-09-28T21:24:08.717Z,17.65
2022-09-28T21:26:39.176Z,17.07
2022-09-28T21:29:12.542Z,16.68
2022-09-28T21:31:49.622Z,16.39
2022-09-28T21:34:20.341Z,16.14
2022-09-28T21:36:51.528Z,15.96
2022-09-28T21:39:20.391Z,15.80
2022-09-28T21:41:48.568Z,15.66
2022-09-28T21:44:16.899Z,15.53
2022-09-28T21:46:45.570Z,15.40
2022-09-28T21:49:19.955Z,15.29
2022-09-28T21:51:55.117Z,15.18
2022-09-28T21:54:30.869Z,15.10
2022-09-28T21:57:01.551Z,15.02
2022-09-28T21:59:29.947Z,15.45
2022-09-28T22:01:58.157Z,17.87
2022-09-28T22:04:26.296Z,19.26
2022-09-28T22:06:54.570Z,18.45
2022-09-28T22:09:22.744Z,17.45
2022-09-28T22:11:51.536Z,16.77
2022-09-28T22:14:19.766Z,16.28
2022-09-28T22:16:48.069Z,15.84
2022-09-28T22:19:16.263Z,15.43
2022-09-28T22:21:44.636Z,15.75
2022-09-28T22:24:12.715Z,18.00
2022-09-28T22:26:41.091Z,19.08
2022-09-28T22:29:10.234Z,18.15
2022-09-28T22:31:40.644Z,17.11
2022-09-28T22:34:09.737Z,16.38
2022-09-28T22:36:37.878Z,15.91
2022-09-28T22:39:06.344Z,15.61
2022-09-28T22:41:35.044Z,16.50
2022-09-28T22:44:03.118Z,18.91
2022-09-28T22:46:32.923Z,19.37
2022-09-28T22:49:02.024Z,18.35
2022-09-28T22:51:31.003Z,17.49
2022-09-28T22:53:59.603Z,16.93
2022-09-28T22:56:28.285Z,16.52
2022-09-28T22:58:56.357Z,16.21
2022-09-28T23:01:27.668Z,15.94
2022-09-28T23:03:57.320Z,16.24
2022-09-28T23:06:27.328Z,18.46
2022-09-28T23:08:55.504Z,19.41
2022-09-28T23:11:23.684Z,18.47
2022-09-28T23:13:53.798Z,17.53
2022-09-28T23:16:25.075Z,16.88
2022-09-28T23:18:55.171Z,16.43
2022-09-28T23:21:25.894Z,16.08
2022-09-28T23:23:56.940Z,16.33
2022-09-28T23:26:30.743Z,18.74
2022-09-28T23:29:00.041Z,19.44
2022-09-28T23:31:30.820Z,18.41
2022-09-28T23:34:06.740Z,17.46
2022-09-28T23:36:35.498Z,16.80
2022-09-28T23:39:04.107Z,16.35
2022-09-28T23:41:32.583Z,15.98
2022-09-28T23:44:00.962Z,16.23
2022-09-28T23:46:29.186Z,18.47
2022-09-28T23:48:57.416Z,19.49
2022-09-28T23:51:25.483Z,18.57
2022-09-28T23:53:53.557Z,17.61
2022-09-28T23:56:22.036Z,16.90
2022-09-28T23:58:50.107Z,16.36
